createdAt,value
2022-07-29T00:00:05.688Z,57.42
2022-07-29T00:02:53.200Z,57.49
2022-07-29T00:05:21.018Z,57.53
2022-07-29T00:07:48.554Z,57.70
2022-07-29T00:10:16.193Z,57.53
2022-07-29T00:12:44.040Z,57.64
2022-07-29T00:15:12.032Z,57.68
2022-07-29T00:17:39.764Z,57.66
2022-07-29T00:20:09.187Z,57.71
2022-07-29T00:22:38.840Z,57.69
2022-07-29T00:25:08.479Z,58.03
2022-07-29T00:27:36.797Z,58.16
2022-07-29T00:30:05.181Z,58.02
2022-07-29T00:32:32.991Z,58.05
2022-07-29T00:35:19.694Z,57.93
2022-07-29T00:37:47.326Z,58.41
2022-07-29T00:40:14.942Z,58.36
2022-07-29T00:42:43.389Z,58.42
2022-07-29T00:45:12.208Z,58.61
2022-07-29T00:47:39.918Z,58.63
2022-07-29T00:50:09.210Z,58.67
2022-07-29T00:52:38.402Z,58.82
2022-07-29T00:55:09.378Z,58.99
2022-07-29T00:57:37.555Z,59.20
2022-07-29T01:00:07.167Z,59.44
2022-07-29T01:02:34.906Z,59.22
2022-07-29T01:05:02.978Z,59.30
2022-07-29T01:07:32.967Z,59.25
2022-07-29T01:10:01.396Z,59.20
2022-07-29T01:12:32.201Z,59.14
2022-07-29T01:15:00.749Z,59.13
2022-07-29T01:17:33.060Z,59.17
2022-07-29T01:20:03.878Z,59.07
2022-07-29T01:22:38.018Z,59.20
2022-07-29T01:25:20.695Z,59.27
2022-07-29T01:28:02.241Z,59.36
2022-07-29T01:30:33.248Z,59.49
2022-07-29T01:33:06.786Z,59.58
2022-07-29T01:35:37.268Z,59.66
2022-07-29T01:38:08.101Z,59.65
2022-07-29T01:40:39.746Z,59.79
2022-07-29T01:43:11.103Z,59.80
2022-07-29T01:45:41.395Z,59.78
2022-07-29T01:48:12.977Z,59.71
2022-07-29T01:50:49.131Z,59.86
2022-07-29T01:53:22.462Z,59.68
2022-07-29T01:55:51.108Z,59.75
2022-07-29T01:58:19.923Z,59.99
2022-07-29T02:00:49.154Z,60.05
2022-07-29T02:03:18.307Z,60.12
2022-07-29T02:05:47.428Z,60.23
2022-07-29T02:08:16.207Z,60.19
2022-07-29T02:10:46.088Z,60.14
2022-07-29T02:13:14.660Z,60.34
2022-07-29T02:15:43.003Z,60.37
2022-07-29T02:18:13.708Z,60.28
2022-07-29T02:20:44.044Z,60.21
2022-07-29T02:23:12.565Z,60.22
2022-07-29T02:25:42.119Z,60.09
2022-07-29T02:28:11.198Z,60.21
2022-07-29T02:30:41.132Z,60.38
2022-07-29T02:33:09.592Z,60.40
2022-07-29T02:35:37.938Z,60.47
2022-07-29T02:38:23.846Z,60.53
2022-07-29T02:40:52.741Z,60.56
2022-07-29T02:43:21.950Z,60.71
2022-07-29T02:45:52.098Z,60.73
2022-07-29T02:48:20.824Z,60.70
2022-07-29T02:50:51.004Z,60.61
2022-07-29T02:53:19.579Z,60.67
2022-07-29T02:55:52.345Z,60.67
2022-07-29T02:58:23.027Z,60.76
2022-07-29T03:00:52.353Z,60.92
2022-07-29T03:06:58.917Z,61.28
2022-07-29T03:09:27.972Z,61.77
2022-07-29T03:11:56.661Z,61.90
2022-07-29T03:14:25.057Z,62.14
2022-07-29T03:16:53.279Z,62.26
2022-07-29T03:19:21.425Z,62.38
2022-07-29T03:21:49.730Z,62.07
2022-07-29T03:24:27.362Z,61.99
2022-07-29T03:26:56.169Z,61.99
2022-07-29T03:29:24.669Z,61.99
2022-07-29T03:31:52.279Z,61.97
2022-07-29T03:34:19.979Z,61.79
2022-07-29T03:36:51.468Z,61.54
2022-07-29T03:39:22.012Z,61.58
2022-07-29T03:41:51.339Z,61.06
2022-07-29T03:44:20.259Z,60.76
2022-07-29T03:46:49.067Z,60.66
2022-07-29T03:49:17.597Z,60.40
2022-07-29T03:51:47.068Z,59.85
2022-07-29T03:54:14.895Z,59.53
2022-07-29T03:56:46.557Z,58.76
2022-07-29T03:59:14.364Z,57.90
2022-07-29T04:01:42.786Z,57.31
2022-07-29T04:04:11.088Z,56.62
2022-07-29T04:06:40.301Z,55.80
2022-07-29T04:09:09.879Z,54.78
2022-07-29T04:12:02.712Z,54.47
2022-07-29T04:14:26.786Z,53.94
2022-07-29T04:16:54.577Z,53.45
2022-07-29T04:19:22.225Z,53.38
2022-07-29T04:21:49.932Z,53.15
2022-07-29T04:24:18.605Z,52.84
2022-07-29T04:26:47.313Z,52.54
2022-07-29T04:29:15.120Z,51.93
2022-07-29T04:31:43.669Z,51.73
2022-07-29T04:34:11.544Z,51.59
2022-07-29T04:36:39.302Z,51.57
2022-07-29T04:39:07.003Z,51.57
2022-07-29T04:41:34.868Z,51.18
2022-07-29T04:44:05.448Z,51.32
2022-07-29T04:46:33.366Z,50.78
2022-07-29T04:49:01.198Z,50.19
2022-07-29T04:51:29.039Z,49.19
2022-07-29T04:53:56.788Z,48.43
2022-07-29T04:56:24.744Z,47.65
2022-07-29T04:58:52.357Z,47.26
2022-07-29T05:01:20.371Z,47.14
2022-07-29T05:03:48.253Z,46.60
2022-07-29T05:06:16.048Z,46.55
2022-07-29T05:08:43.729Z,46.09
2022-07-29T05:11:12.981Z,45.89
2022-07-29T05:13:46.006Z,46.33
2022-07-29T05:16:15.181Z,46.36
2022-07-29T05:18:43.119Z,45.89
2022-07-29T05:21:10.893Z,44.88
2022-07-29T05:23:38.575Z,44.22
2022-07-29T05:26:06.589Z,43.79
2022-07-29T05:28:34.721Z,43.56
2022-07-29T05:31:02.888Z,42.91
2022-07-29T05:33:35.064Z,42.02
2022-07-29T05:36:05.833Z,42.04
2022-07-29T05:38:33.785Z,42.09
2022-07-29T05:41:01.671Z,42.06
2022-07-29T05:43:29.387Z,42.17
2022-07-29T05:45:57.522Z,42.13
2022-07-29T05:48:25.633Z,41.86
2022-07-29T05:50:53.304Z,41.13
2022-07-29T05:53:21.224Z,40.50
2022-07-29T05:55:49.342Z,40.20
2022-07-29T05:58:17.398Z,40.55
2022-07-29T06:00:45.562Z,40.47
2022-07-29T06:03:13.368Z,40.52
2022-07-29T06:05:41.194Z,40.31
2022-07-29T06:08:09.326Z,40.32
2022-07-29T06:10:37.118Z,40.15
2022-07-29T06:13:05.672Z,39.94
2022-07-29T06:15:33.767Z,39.83
2022-07-29T06:18:02.261Z,39.87
2022-07-29T06:20:30.857Z,39.64
2022-07-29T06:22:58.912Z,40.03
2022-07-29T06:25:26.844Z,40.76
2022-07-29T06:27:54.696Z,41.37
2022-07-29T06:30:22.556Z,41.69
2022-07-29T06:32:50.403Z,41.80
2022-07-29T06:35:41.240Z,41.81
2022-07-29T06:38:12.012Z,41.61
2022-07-29T06:41:03.619Z,41.99
2022-07-29T06:43:33.991Z,41.75
2022-07-29T06:46:02.151Z,41.35
2022-07-29T06:48:30.669Z,40.89
2022-07-29T06:50:58.613Z,40.88
2022-07-29T06:53:26.464Z,41.32
2022-07-29T06:55:54.296Z,41.29
2022-07-29T06:58:22.087Z,41.10
2022-07-29T07:00:59.340Z,41.02
2022-07-29T07:03:27.336Z,40.71
2022-07-29T07:05:55.408Z,40.78
2022-07-29T07:08:23.980Z,40.16
2022-07-29T07:10:51.759Z,39.18
2022-07-29T07:13:19.388Z,39.31
2022-07-29T07:15:48.787Z,39.69
2022-07-29T07:18:17.331Z,39.96
2022-07-29T07:20:45.232Z,40.33
2022-07-29T07:23:12.803Z,40.56
2022-07-29T07:25:40.414Z,40.66
2022-07-29T07:28:08.182Z,40.92
2022-07-29T07:30:36.007Z,41.03
2022-07-29T07:33:03.784Z,41.16
2022-07-29T07:35:31.597Z,41.40
2022-07-29T07:37:59.564Z,41.78
2022-07-29T07:40:27.365Z,42.32
2022-07-29T07:42:55.128Z,42.36
2022-07-29T07:45:22.794Z,42.57
2022-07-29T07:47:50.604Z,43.09
2022-07-29T07:50:19.285Z,43.26
2022-07-29T07:52:48.489Z,43.36
2022-07-29T07:55:16.697Z,43.50
2022-07-29T07:57:44.581Z,43.57
2022-07-29T08:00:13.831Z,43.45
2022-07-29T08:02:43.150Z,43.37
2022-07-29T08:05:12.695Z,43.15
2022-07-29T08:07:40.875Z,42.96
2022-07-29T08:10:09.150Z,43.11
2022-07-29T08:12:36.970Z,43.11
2022-07-29T08:15:07.602Z,43.02
2022-07-29T08:17:35.653Z,42.76
2022-07-29T08:20:04.327Z,42.86
2022-07-29T08:22:32.091Z,43.09
2022-07-29T08:24:59.751Z,43.07
2022-07-29T08:27:44.761Z,43.05
2022-07-29T08:30:12.683Z,43.01
2022-07-29T08:32:56.348Z,42.83
2022-07-29T08:35:24.596Z,42.83
2022-07-29T08:37:53.055Z,42.96
2022-07-29T08:40:21.432Z,43.14
2022-07-29T09:09:34.935Z,42.93
2022-07-29T09:12:04.401Z,42.89
2022-07-29T09:14:33.181Z,43.08
2022-07-29T09:17:02.426Z,43.40
2022-07-29T09:19:35.112Z,43.60
2022-07-29T09:22:06.598Z,43.85
2022-07-29T09:24:40.628Z,44.58
2022-07-29T09:27:21.501Z,46.27
2022-07-29T09:29:58.354Z,48.00
2022-07-29T09:32:27.327Z,48.35
2022-07-29T09:35:16.756Z,49.82
2022-07-29T09:37:45.866Z,52.12
2022-07-29T09:40:17.353Z,53.35
2022-07-29T09:42:46.604Z,53.94
2022-07-29T09:45:28.933Z,54.43
2022-07-29T09:48:00.675Z,54.91
2022-07-29T09:50:38.523Z,55.55
2022-07-29T09:53:09.712Z,56.20
2022-07-29T09:55:49.116Z,56.59
2022-07-29T09:58:19.220Z,57.02
2022-07-29T10:00:49.131Z,57.14
2022-07-29T10:03:18.626Z,57.76
2022-07-29T10:06:04.115Z,58.33
2022-07-29T10:08:33.085Z,59.36
2022-07-29T10:11:12.333Z,60.45
2022-07-29T10:13:42.409Z,60.87
2022-07-29T10:16:11.781Z,60.63
2022-07-29T10:18:42.400Z,60.70
2022-07-29T10:21:11.409Z,61.24
2022-07-29T10:23:51.334Z,62.50
2022-07-29T10:26:20.893Z,63.80
2022-07-29T10:28:49.488Z,64.74
2022-07-29T10:31:28.885Z,65.25
2022-07-29T10:34:07.760Z,65.42
2022-07-29T10:36:52.099Z,65.13
2022-07-29T10:39:41.816Z,64.73
2022-07-29T10:42:33.415Z,64.67
2022-07-29T10:45:04.778Z,64.55
2022-07-29T10:47:35.152Z,64.04
2022-07-29T10:50:06.558Z,63.91
2022-07-29T10:52:56.911Z,63.76
2022-07-29T10:55:41.934Z,63.73
2022-07-29T10:58:17.846Z,63.83
2022-07-29T11:00:47.931Z,64.28
2022-07-29T11:03:49.282Z,64.64
2022-07-29T11:06:26.682Z,64.80
2022-07-29T11:09:20.197Z,64.42
2022-07-29T11:11:54.780Z,64.05
2022-07-29T11:14:55.102Z,63.74
2022-07-29T11:17:25.557Z,63.25
2022-07-29T11:20:34.187Z,62.87
2022-07-29T11:23:23.841Z,62.41
2022-07-29T11:26:24.140Z,62.11
2022-07-29T11:28:58.408Z,61.64
2022-07-29T11:31:38.781Z,61.52
2022-07-29T11:34:28.044Z,61.49
2022-07-29T11:37:27.584Z,61.27
2022-07-29T11:40:26.667Z,61.53
2022-07-29T11:42:55.360Z,61.40
2022-07-29T11:45:45.593Z,61.23
2022-07-29T11:48:29.267Z,60.75
2022-07-29T11:51:12.152Z,60.52
2022-07-29T11:53:48.466Z,60.29
2022-07-29T11:56:25.621Z,60.34
2022-07-29T11:59:05.396Z,60.19
2022-07-29T12:01:37.508Z,60.15
2022-07-29T12:04:07.166Z,60.16
2022-07-29T12:06:36.136Z,60.46
2022-07-29T12:09:14.565Z,60.84
2022-07-29T12:11:55.387Z,60.97
2022-07-29T12:14:28.357Z,61.78
2022-07-29T12:16:57.651Z,63.04
2022-07-29T12:19:27.704Z,66.55
2022-07-29T12:21:59.452Z,68.77
2022-07-29T12:24:44.985Z,70.49
2022-07-29T12:27:18.776Z,72.40
2022-07-29T12:29:58.423Z,73.86
2022-07-29T12:32:34.224Z,75.22
2022-07-29T12:35:06.218Z,76.44
2022-07-29T12:37:42.535Z,76.83
2022-07-29T12:40:13.794Z,77.69
2022-07-29T12:42:42.468Z,77.80
2022-07-29T12:45:11.776Z,78.79
2022-07-29T12:47:54.204Z,79.16
2022-07-29T12:50:26.241Z,78.80
2022-07-29T12:52:55.495Z,79.51
2022-07-29T12:55:51.657Z,79.52
2022-07-29T12:58:31.410Z,80.00
2022-07-29T13:01:16.965Z,80.33
2022-07-29T13:03:57.774Z,80.46
2022-07-29T13:06:31.824Z,80.30
2022-07-29T13:09:18.783Z,80.25
2022-07-29T13:11:49.928Z,80.34
2022-07-29T13:14:34.504Z,80.53
2022-07-29T13:17:06.458Z,80.09
2022-07-29T13:19:37.982Z,79.66
2022-07-29T13:22:06.833Z,79.74
2022-07-29T13:24:45.729Z,79.29
2022-07-29T13:27:15.174Z,79.21
2022-07-29T13:29:43.657Z,79.14
2022-07-29T13:32:12.705Z,79.19
2022-07-29T13:34:41.460Z,79.31
2022-07-29T13:37:10.715Z,79.31
2022-07-29T13:39:40.184Z,79.49
2022-07-29T13:42:11.084Z,79.59
2022-07-29T13:44:40.567Z,79.54
2022-07-29T13:47:09.700Z,79.51
2022-07-29T13:49:38.385Z,79.36
2022-07-29T13:52:07.663Z,79.54
2022-07-29T13:54:42.128Z,79.77
2022-07-29T13:57:12.027Z,79.69
2022-07-29T13:59:42.305Z,80.24
2022-07-29T14:02:13.767Z,80.22
2022-07-29T14:04:44.341Z,80.10
2022-07-29T14:07:16.350Z,79.95
2022-07-29T14:09:45.099Z,80.26
2022-07-29T14:12:13.947Z,80.27
2022-07-29T14:14:43.194Z,79.84
2022-07-29T14:17:11.984Z,79.71
2022-07-29T14:19:40.666Z,79.76
2022-07-29T14:22:10.683Z,79.63
2022-07-29T14:24:40.062Z,79.24
2022-07-29T14:27:09.508Z,79.00
2022-07-29T14:29:38.943Z,78.55
2022-07-29T14:32:09.365Z,78.42
2022-07-29T14:34:38.460Z,78.00
2022-07-29T14:37:07.412Z,77.69
2022-07-29T14:39:42.469Z,77.47
2022-07-29T14:42:13.243Z,77.37
2022-07-29T14:44:41.937Z,77.29
2022-07-29T14:47:10.751Z,77.31
2022-07-29T14:49:39.236Z,76.84
2022-07-29T14:52:07.894Z,76.61
2022-07-29T14:54:36.609Z,76.36
2022-07-29T14:57:05.689Z,75.91
2022-07-29T14:59:34.411Z,75.56
2022-07-29T15:02:03.642Z,75.59
2022-07-29T15:04:32.757Z,75.83
2022-07-29T15:07:01.437Z,75.96
2022-07-29T15:09:30.467Z,76.26
2022-07-29T15:11:59.561Z,76.64
2022-07-29T15:14:28.441Z,76.90
2022-07-29T15:16:57.158Z,76.98
2022-07-29T15:19:26.327Z,77.23
2022-07-29T15:21:59.150Z,77.23
2022-07-29T15:24:28.571Z,77.19
2022-07-29T15:26:57.236Z,77.42
2022-07-29T15:29:25.892Z,77.20
2022-07-29T15:31:54.481Z,77.40
2022-07-29T15:34:23.723Z,77.62
2022-07-29T15:36:53.525Z,77.89
2022-07-29T15:39:23.119Z,77.84
2022-07-29T15:41:52.544Z,77.81
2022-07-29T15:44:21.377Z,77.89
2022-07-29T15:47:06.529Z,77.91
2022-07-29T15:49:47.886Z,77.93
2022-07-29T15:52:25.379Z,78.83
2022-07-29T15:54:56.040Z,79.52
2022-07-29T15:57:25.484Z,80.10
2022-07-29T15:59:54.201Z,80.09
2022-07-29T16:02:22.757Z,80.06
2022-07-29T16:04:51.395Z,80.66
2022-07-29T16:07:19.917Z,80.84
2022-07-29T16:09:53.081Z,81.05
2022-07-29T16:12:21.985Z,81.38
2022-07-29T16:14:51.498Z,81.63
2022-07-29T16:17:20.871Z,81.60
2022-07-29T16:19:49.834Z,81.63
2022-07-29T16:22:18.350Z,81.78
2022-07-29T16:24:46.991Z,81.61
2022-07-29T16:27:15.749Z,81.67
2022-07-29T16:29:46.175Z,81.88
2022-07-29T16:32:14.992Z,81.91
2022-07-29T16:34:51.478Z,81.92
2022-07-29T16:37:20.077Z,82.01
2022-07-29T16:39:48.702Z,82.05
2022-07-29T16:42:37.058Z,82.11
2022-07-29T16:45:08.304Z,82.15
2022-07-29T16:47:37.080Z,82.30
2022-07-29T16:50:08.509Z,82.16
2022-07-29T16:52:37.769Z,81.76
2022-07-29T16:55:08.169Z,81.88
2022-07-29T16:57:36.773Z,82.05
2022-07-29T17:00:07.698Z,81.92
2022-07-29T17:02:38.052Z,81.93
2022-07-29T17:05:09.893Z,81.63
2022-07-29T17:07:37.800Z,81.41
2022-07-29T17:10:08.105Z,81.55
2022-07-29T17:12:38.922Z,81.22
2022-07-29T17:15:10.838Z,80.93
2022-07-29T17:17:56.470Z,80.69
2022-07-29T17:20:26.396Z,80.13
2022-07-29T17:22:55.265Z,80.06
2022-07-29T17:25:25.640Z,80.29
2022-07-29T17:28:00.263Z,80.31
2022-07-29T17:30:30.112Z,80.42
2022-07-29T17:32:58.741Z,80.58
2022-07-29T17:35:46.104Z,80.56
2022-07-29T17:38:14.688Z,80.50
2022-07-29T17:40:43.263Z,80.62
2022-07-29T17:43:16.216Z,80.57
2022-07-29T17:45:49.817Z,80.60
2022-07-29T17:48:19.800Z,80.65
2022-07-29T17:50:49.048Z,80.20
2022-07-29T17:53:17.749Z,79.91
2022-07-29T17:55:49.019Z,79.57
2022-07-29T17:58:17.613Z,79.20
2022-07-29T18:00:46.286Z,79.07
2022-07-29T18:03:15.247Z,78.80
2022-07-29T18:05:44.358Z,78.90
2022-07-29T18:08:13.271Z,78.91
2022-07-29T18:10:42.041Z,78.92
2022-07-29T18:13:12.053Z,78.81
2022-07-29T18:15:41.212Z,79.23
2022-07-29T18:18:10.293Z,79.56
2022-07-29T18:20:39.796Z,79.51
2022-07-29T18:23:09.437Z,79.66
2022-07-29T18:25:38.864Z,79.79
2022-07-29T18:28:07.988Z,79.73
2022-07-29T18:30:37.304Z,79.60
2022-07-29T18:33:21.223Z,79.45
2022-07-29T18:35:52.714Z,79.58
2022-07-29T18:38:40.708Z,79.62
2022-07-29T18:41:09.354Z,79.38
2022-07-29T18:43:37.874Z,79.19
2022-07-29T18:46:06.885Z,79.39
2022-07-29T18:48:35.828Z,79.47
2022-07-29T18:51:09.231Z,79.53
2022-07-29T18:53:38.396Z,79.92
2022-07-29T18:56:07.075Z,79.64
2022-07-29T18:58:37.941Z,79.72
2022-07-29T19:01:07.280Z,79.59
2022-07-29T19:03:36.228Z,79.72
2022-07-29T19:06:12.429Z,79.65
2022-07-29T19:08:41.843Z,79.68
2022-07-29T19:11:13.464Z,79.58
2022-07-29T19:13:42.802Z,79.74
2022-07-29T19:16:17.337Z,79.77
2022-07-29T19:18:51.694Z,79.67
2022-07-29T19:21:22.714Z,79.59
2022-07-29T19:24:01.777Z,79.66
2022-07-29T19:26:41.602Z,79.59
2022-07-29T19:29:10.488Z,79.47
2022-07-29T19:31:39.756Z,79.35
2022-07-29T19:34:08.973Z,79.34
2022-07-29T19:36:38.249Z,79.22
2022-07-29T19:39:07.168Z,79.23
2022-07-29T19:41:36.115Z,79.14
2022-07-29T19:44:05.313Z,79.15
2022-07-29T19:46:34.154Z,79.13
2022-07-29T19:49:06.235Z,78.92
2022-07-29T19:51:34.996Z,79.03
2022-07-29T19:54:03.906Z,78.90
2022-07-29T19:56:32.668Z,78.68
2022-07-29T19:59:01.776Z,78.81
2022-07-29T20:01:32.123Z,78.80
2022-07-29T20:04:00.892Z,78.73
2022-07-29T20:06:29.741Z,78.73
2022-07-29T20:08:59.114Z,78.69
2022-07-29T20:11:29.545Z,78.79
2022-07-29T20:13:58.821Z,78.82
2022-07-29T20:16:28.229Z,78.76
2022-07-29T20:18:56.985Z,78.88
2022-07-29T20:21:26.167Z,78.80
2022-07-29T20:23:59.844Z,78.85
2022-07-29T20:26:28.738Z,79.06
2022-07-29T20:28:58.932Z,79.28
2022-07-29T20:31:30.256Z,79.39
2022-07-29T20:33:59.975Z,79.49
2022-07-29T20:36:29.148Z,79.55
2022-07-29T20:39:00.777Z,79.69
2022-07-29T20:41:29.608Z,79.58
2022-07-29T20:43:59.734Z,79.68
2022-07-29T20:46:28.647Z,79.82
2022-07-29T20:48:57.514Z,79.71
2022-07-29T20:51:26.292Z,79.76
2022-07-29T20:53:55.167Z,79.70
2022-07-29T20:56:24.600Z,79.73
2022-07-29T20:58:53.652Z,79.75
2022-07-29T21:01:22.364Z,79.52
2022-07-29T21:03:51.147Z,79.57
2022-07-29T21:06:20.440Z,79.61
2022-07-29T21:08:49.135Z,79.53
2022-07-29T21:11:18.191Z,79.64
2022-07-29T21:14:06.875Z,79.86
2022-07-29T21:16:35.581Z,79.87
2022-07-29T21:19:04.329Z,79.96
2022-07-29T21:21:33.194Z,80.13
2022-07-29T21:24:03.020Z,79.95
2022-07-29T21:26:31.570Z,80.02
2022-07-29T21:29:00.306Z,80.31
2022-07-29T21:31:28.793Z,80.18
2022-07-29T21:33:57.405Z,80.21
2022-07-29T21:36:47.737Z,80.46
2022-07-29T21:39:14.864Z,80.56
2022-07-29T21:41:43.505Z,80.84
2022-07-29T21:44:12.193Z,81.18
2022-07-29T21:46:40.943Z,81.44
2022-07-29T21:49:09.497Z,81.45
2022-07-29T21:51:38.039Z,81.58
2022-07-29T21:54:06.795Z,81.83
2022-07-29T21:56:37.414Z,81.93
2022-07-29T21:59:06.115Z,82.00
2022-07-29T22:01:39.342Z,82.04
2022-07-29T22:04:10.294Z,82.08
2022-07-29T22:06:38.947Z,82.21
2022-07-29T22:09:07.514Z,82.31
2022-07-29T22:11:36.241Z,82.24
2022-07-29T22:14:06.703Z,82.17
2022-07-29T22:16:35.416Z,82.33
2022-07-29T22:19:04.159Z,82.45
2022-07-29T22:21:33.023Z,82.28
2022-07-29T22:24:01.849Z,82.49
2022-07-29T22:26:30.543Z,82.44
2022-07-29T22:28:59.405Z,82.41
2022-07-29T22:31:27.948Z,82.30
2022-07-29T22:33:56.720Z,82.10
2022-07-29T22:36:26.000Z,82.34
2022-07-29T22:38:54.549Z,82.47
2022-07-29T22:41:23.114Z,82.60
2022-07-29T22:43:51.713Z,82.67
2022-07-29T22:46:20.374Z,82.55
2022-07-29T22:48:49.069Z,82.64
2022-07-29T22:51:17.999Z,82.81
2022-07-29T22:53:46.881Z,82.96
2022-07-29T22:56:15.513Z,82.87
2022-07-29T22:58:44.117Z,82.91
2022-07-29T23:01:13.589Z,82.94
2022-07-29T23:03:42.276Z,83.08
2022-07-29T23:06:20.175Z,82.97
2022-07-29T23:08:48.948Z,82.97
2022-07-29T23:11:17.645Z,82.86
2022-07-29T23:13:46.129Z,82.64
2022-07-29T23:16:14.718Z,82.50
2022-07-29T23:18:55.884Z,82.51
2022-07-29T23:21:25.521Z,82.60
2022-07-29T23:23:54.220Z,82.54
2022-07-29T23:26:22.710Z,82.75
2022-07-29T23:28:51.392Z,82.83
2022-07-29T23:31:20.004Z,82.84
2022-07-29T23:33:49.547Z,82.85
2022-07-29T23:36:20.203Z,82.66
2022-07-29T23:38:48.752Z,82.81
2022-07-29T23:41:17.552Z,83.30
2022-07-29T23:43:46.038Z,83.66
2022-07-29T23:46:14.657Z,83.67
2022-07-29T23:48:43.970Z,83.95
2022-07-29T23:51:12.596Z,84.51
2022-07-29T23:53:53.627Z,84.66
2022-07-29T23:56:23.267Z,84.75
2022-07-29T23:58:51.911Z,84.95
